createdAt,value
2019-03-09T00:00:48.011Z,69.50
2019-03-09T00:03:21.580Z,70.80
2019-03-09T00:05:54.923Z,72.40
2019-03-09T00:08:34.144Z,73.00
2019-03-09T00:11:08.420Z,73.70
2019-03-09T00:13:43.111Z,74.00
2019-03-09T00:16:16.589Z,74.60
2019-03-09T00:18:50.708Z,75.30
2019-03-09T00:21:24.390Z,74.70
2019-03-09T00:24:28.958Z,74.50
2019-03-09T00:27:29.891Z,74.50
2019-03-09T00:30:16.602Z,74.20
2019-03-09T00:32:49.732Z,74.20
2019-03-09T00:35:23.011Z,74.60
2019-03-09T00:37:56.296Z,75.30
2019-03-09T00:40:29.556Z,75.40
2019-03-09T00:43:02.641Z,74.90
2019-03-09T00:45:35.896Z,75.10
2019-03-09T00:48:08.872Z,75.00
2019-03-09T00:50:41.890Z,74.70
2019-03-09T00:53:15.012Z,74.70
2019-03-09T00:55:48.305Z,74.80
2019-03-09T00:58:21.388Z,74.70
2019-03-09T01:00:54.515Z,75.10
2019-03-09T01:03:27.723Z,75.20
2019-03-09T01:06:00.770Z,75.20
2019-03-09T01:08:34.060Z,75.30
2019-03-09T01:11:07.333Z,75.00
2019-03-09T01:13:40.493Z,75.70
2019-03-09T01:16:13.641Z,75.90
2019-03-09T01:18:46.708Z,76.30
2019-03-09T01:21:19.831Z,76.80
2019-03-09T01:23:53.000Z,77.10
2019-03-09T01:26:25.884Z,77.60
2019-03-09T01:28:58.796Z,77.30
2019-03-09T01:31:31.557Z,77.30
2019-03-09T01:34:04.702Z,77.60
2019-03-09T01:36:38.807Z,78.10
2019-03-09T01:39:14.052Z,78.30
2019-03-09T01:41:47.119Z,79.10
2019-03-09T01:44:21.487Z,79.50
2019-03-09T01:46:54.784Z,78.60
2019-03-09T01:49:27.945Z,78.30
2019-03-09T01:52:00.986Z,78.50
2019-03-09T01:54:34.206Z,78.70
2019-03-09T01:57:07.435Z,79.00
2019-03-09T01:59:40.537Z,79.60
2019-03-09T02:02:13.717Z,80.00
2019-03-09T02:04:47.139Z,80.00
2019-03-09T02:07:20.238Z,80.00
2019-03-09T02:09:53.635Z,79.90
2019-03-09T02:12:26.816Z,80.00
2019-03-09T02:14:59.641Z,79.90
2019-03-09T02:17:32.533Z,80.20
2019-03-09T02:20:06.367Z,80.70
2019-03-09T02:22:39.204Z,81.30
2019-03-09T02:25:12.355Z,80.90
2019-03-09T02:27:45.632Z,80.90
2019-03-09T02:30:18.737Z,81.20
2019-03-09T02:32:51.722Z,82.20
2019-03-09T02:35:25.027Z,81.00
2019-03-09T02:38:00.672Z,82.40
2019-03-09T02:40:33.760Z,82.80
2019-03-09T02:43:07.268Z,82.60
2019-03-09T02:45:40.622Z,82.50
2019-03-09T02:48:13.591Z,82.20
2019-03-09T02:50:58.769Z,81.90
2019-03-09T02:53:31.851Z,81.70
2019-03-09T02:56:04.833Z,82.10
2019-03-09T02:58:37.929Z,82.70
2019-03-09T03:01:35.605Z,83.30
2019-03-09T03:04:08.831Z,84.00
2019-03-09T03:06:41.454Z,85.00
2019-03-09T03:09:14.485Z,85.90
2019-03-09T03:11:47.366Z,86.70
2019-03-09T03:14:20.273Z,87.10
2019-03-09T03:16:53.223Z,87.50
2019-03-09T03:19:26.048Z,88.80
2019-03-09T03:21:59.024Z,89.00
2019-03-09T03:24:33.368Z,89.40
2019-03-09T03:27:06.199Z,89.50
2019-03-09T03:29:39.500Z,89.70
2019-03-09T03:32:12.244Z,90.00
2019-03-09T03:34:45.694Z,90.60
2019-03-09T03:37:18.600Z,90.50
2019-03-09T03:39:51.657Z,90.70
2019-03-09T03:42:24.493Z,90.90
2019-03-09T03:44:57.391Z,90.80
2019-03-09T03:47:30.229Z,91.00
2019-03-09T03:50:03.181Z,91.00
2019-03-09T03:52:35.907Z,90.90
2019-03-09T03:55:08.926Z,90.80
2019-03-09T03:57:41.621Z,90.80
2019-03-09T04:00:14.711Z,90.80
2019-03-09T04:02:47.607Z,90.80
2019-03-09T04:05:20.709Z,90.90
2019-03-09T04:07:53.795Z,91.00
2019-03-09T04:10:27.269Z,91.20
2019-03-09T04:13:00.273Z,91.30
2019-03-09T04:15:33.316Z,91.50
2019-03-09T04:18:06.305Z,91.80
2019-03-09T04:20:39.059Z,92.10
2019-03-09T04:23:12.073Z,92.50
2019-03-09T04:25:45.413Z,92.20
2019-03-09T04:28:18.511Z,92.30
2019-03-09T04:30:51.539Z,92.40
2019-03-09T04:33:24.461Z,92.50
2019-03-09T04:35:59.063Z,92.50
2019-03-09T04:38:31.962Z,92.60
2019-03-09T04:41:05.703Z,92.60
2019-03-09T04:43:38.421Z,92.70
2019-03-09T04:46:11.281Z,92.90
2019-03-09T04:48:44.187Z,92.80
2019-03-09T04:51:17.041Z,92.80
2019-03-09T04:53:49.995Z,92.60
2019-03-09T04:56:23.276Z,92.40
2019-03-09T04:58:56.790Z,92.20
2019-03-09T05:01:29.484Z,92.20
2019-03-09T05:04:38.165Z,92.10
2019-03-09T05:07:11.977Z,91.90
2019-03-09T05:10:23.149Z,91.90
2019-03-09T05:13:04.176Z,92.00
2019-03-09T05:15:37.091Z,92.10
2019-03-09T05:18:10.331Z,92.20
2019-03-09T05:20:43.085Z,92.20
2019-03-09T05:23:15.974Z,92.30
2019-03-09T05:25:49.938Z,92.40
2019-03-09T05:28:22.701Z,92.50
2019-03-09T05:30:55.567Z,92.60
2019-03-09T05:33:28.493Z,92.70
2019-03-09T05:36:01.613Z,92.80
2019-03-09T05:38:34.410Z,93.00
2019-03-09T05:41:07.714Z,93.20
2019-03-09T05:43:42.104Z,93.20
2019-03-09T05:46:15.520Z,93.30
2019-03-09T05:48:55.847Z,93.40
2019-03-09T05:51:29.406Z,93.30
2019-03-09T05:54:02.278Z,93.30
2019-03-09T05:56:35.171Z,93.40
2019-03-09T05:59:08.724Z,93.70
2019-03-09T06:01:42.473Z,93.20
2019-03-09T06:04:17.735Z,92.90
2019-03-09T06:06:51.053Z,92.90
2019-03-09T06:09:24.585Z,92.80
2019-03-09T06:11:57.746Z,92.80
2019-03-09T06:14:30.867Z,92.70
2019-03-09T06:17:03.943Z,92.70
2019-03-09T06:19:37.149Z,92.30
2019-03-09T06:22:11.135Z,92.10
2019-03-09T06:24:44.337Z,92.00
2019-03-09T06:27:17.257Z,92.00
2019-03-09T06:29:50.301Z,92.10
2019-03-09T06:33:16.665Z,92.10
2019-03-09T06:35:59.155Z,91.60
2019-03-09T06:39:27.347Z,91.30
2019-03-09T06:42:46.221Z,91.00
2019-03-09T06:45:20.912Z,90.80
2019-03-09T06:47:53.970Z,89.50
2019-03-09T06:50:26.927Z,88.90
2019-03-09T06:53:03.100Z,88.40
2019-03-09T06:55:36.570Z,86.80
2019-03-09T06:58:09.724Z,85.90
2019-03-09T07:00:44.691Z,85.20
2019-03-09T07:03:17.770Z,83.30
2019-03-09T07:05:50.700Z,80.60
2019-03-09T07:08:24.022Z,77.80
2019-03-09T07:10:58.379Z,73.80
2019-03-09T07:13:32.370Z,72.40
2019-03-09T07:16:05.729Z,70.70
2019-03-09T07:18:42.257Z,67.40
2019-03-09T07:21:17.198Z,62.80
2019-03-09T07:23:50.501Z,58.20
2019-03-09T07:26:23.826Z,53.70
2019-03-09T07:28:57.350Z,52.50
2019-03-09T07:31:30.454Z,51.00
2019-03-09T07:34:25.648Z,50.10
2019-03-09T07:36:58.925Z,51.30
2019-03-09T07:39:32.509Z,49.20
2019-03-09T07:42:06.001Z,50.30
2019-03-09T07:44:39.160Z,50.00
2019-03-09T07:47:13.178Z,48.80
2019-03-09T07:49:46.459Z,47.30
2019-03-09T07:52:37.692Z,46.40
2019-03-09T07:55:14.533Z,45.70
2019-03-09T07:57:48.062Z,45.20
2019-03-09T08:00:22.408Z,44.30
2019-03-09T08:02:56.604Z,44.10
2019-03-09T08:05:29.855Z,43.60
2019-03-09T08:08:04.037Z,42.90
2019-03-09T08:10:37.369Z,42.40
2019-03-09T08:13:10.835Z,41.80
2019-03-09T08:15:44.561Z,40.80
2019-03-09T08:18:18.007Z,40.90
2019-03-09T08:20:51.224Z,41.10
2019-03-09T08:23:24.896Z,39.40
2019-03-09T08:26:32.355Z,40.00
2019-03-09T08:29:06.381Z,39.70
2019-03-09T08:31:42.455Z,39.30
2019-03-09T08:34:14.886Z,40.70
2019-03-09T08:36:47.153Z,40.40
2019-03-09T08:39:19.455Z,40.30
2019-03-09T08:41:51.965Z,40.10
2019-03-09T08:44:24.313Z,41.00
2019-03-09T08:46:56.725Z,41.30
2019-03-09T08:49:29.157Z,41.40
2019-03-09T08:52:01.455Z,40.40
2019-03-09T08:54:33.796Z,40.90
2019-03-09T08:57:06.173Z,41.50
2019-03-09T08:59:38.421Z,41.30
2019-03-09T09:02:10.808Z,41.10
2019-03-09T09:04:43.229Z,41.50
2019-03-09T09:07:15.645Z,41.30
2019-03-09T09:09:48.182Z,40.80
2019-03-09T09:12:20.676Z,40.20
2019-03-09T09:14:52.995Z,41.40
2019-03-09T09:17:25.449Z,40.10
2019-03-09T09:19:57.700Z,40.10
2019-03-09T09:22:30.198Z,40.40
2019-03-09T09:25:02.709Z,40.10
2019-03-09T09:27:35.272Z,40.40
2019-03-09T09:30:11.048Z,40.10
2019-03-09T09:32:43.547Z,39.20
2019-03-09T09:35:16.578Z,39.40
2019-03-09T09:37:49.314Z,39.00
2019-03-09T09:40:23.063Z,39.40
2019-03-09T09:42:55.781Z,39.10
2019-03-09T09:45:28.167Z,39.30
2019-03-09T09:48:00.488Z,39.00
2019-03-09T09:50:32.944Z,39.40
2019-03-09T09:53:05.214Z,39.00
2019-03-09T09:55:37.802Z,38.00
2019-03-09T09:58:10.503Z,38.50
2019-03-09T10:00:42.864Z,38.70
2019-03-09T10:03:15.413Z,38.80
2019-03-09T10:05:47.989Z,38.50
2019-03-09T10:08:20.397Z,38.10
2019-03-09T10:10:52.775Z,38.00
2019-03-09T10:13:24.982Z,38.10
2019-03-09T10:15:57.480Z,38.30
2019-03-09T10:18:29.979Z,38.60
2019-03-09T10:21:02.538Z,38.60
2019-03-09T10:23:34.841Z,39.80
2019-03-09T10:26:07.356Z,38.10
2019-03-09T10:28:39.892Z,38.40
2019-03-09T10:31:12.339Z,38.30
2019-03-09T10:33:44.682Z,38.00
2019-03-09T10:36:16.942Z,38.70
2019-03-09T10:38:49.252Z,38.40
2019-03-09T10:41:21.935Z,38.00
2019-03-09T10:43:54.364Z,38.90
2019-03-09T10:46:26.932Z,37.70
2019-03-09T10:48:59.603Z,37.80
2019-03-09T10:51:32.334Z,36.90
2019-03-09T10:54:04.737Z,37.30
2019-03-09T10:56:37.154Z,37.00
2019-03-09T10:59:09.385Z,36.60
2019-03-09T11:01:41.715Z,36.40
2019-03-09T11:04:14.129Z,36.40
2019-03-09T11:06:46.574Z,37.80
2019-03-09T11:09:18.976Z,36.60
2019-03-09T11:11:51.179Z,35.60
2019-03-09T11:14:23.390Z,36.90
2019-03-09T11:16:55.627Z,36.40
2019-03-09T11:19:28.298Z,35.80
2019-03-09T11:22:00.561Z,36.30
2019-03-09T11:24:33.096Z,36.70
2019-03-09T11:27:05.632Z,36.00
2019-03-09T11:29:38.125Z,36.40
2019-03-09T11:32:10.415Z,38.10
2019-03-09T11:34:42.763Z,36.70
2019-03-09T11:37:15.106Z,36.70
2019-03-09T11:39:47.124Z,37.30
2019-03-09T11:42:19.722Z,37.30
2019-03-09T11:44:52.182Z,36.20
2019-03-09T11:47:24.590Z,37.00
2019-03-09T11:49:56.822Z,37.20
2019-03-09T11:52:29.298Z,37.10
2019-03-09T11:55:02.123Z,37.10
2019-03-09T11:57:34.333Z,37.60
2019-03-09T12:00:08.561Z,38.80
2019-03-09T12:02:40.722Z,38.10
2019-03-09T12:05:14.270Z,39.10
2019-03-09T12:07:47.021Z,38.70
2019-03-09T12:10:19.423Z,39.60
2019-03-09T12:12:51.749Z,39.40
2019-03-09T12:15:24.032Z,39.70
2019-03-09T12:17:56.253Z,39.50
2019-03-09T12:20:30.002Z,39.00
2019-03-09T12:23:18.824Z,38.50
2019-03-09T12:25:51.384Z,39.10
2019-03-09T12:28:23.950Z,39.60
2019-03-09T12:30:56.345Z,38.60
2019-03-09T12:33:28.724Z,37.90
2019-03-09T12:36:01.115Z,37.90
2019-03-09T12:38:33.637Z,38.50
2019-03-09T12:41:06.000Z,38.90
2019-03-09T12:43:38.655Z,38.80
2019-03-09T12:46:10.864Z,38.90
2019-03-09T12:48:43.202Z,39.70
2019-03-09T12:51:15.640Z,40.00
2019-03-09T12:53:48.012Z,39.90
2019-03-09T12:56:20.610Z,39.80
2019-03-09T12:58:52.950Z,40.00
2019-03-09T13:01:25.425Z,40.80
2019-03-09T13:03:57.993Z,40.40
2019-03-09T13:06:30.586Z,41.00
2019-03-09T13:09:03.055Z,40.40
2019-03-09T13:11:35.811Z,39.70
2019-03-09T13:14:08.404Z,40.40
2019-03-09T13:16:40.760Z,40.50
2019-03-09T13:19:13.142Z,41.20
2019-03-09T13:21:45.587Z,40.60
2019-03-09T13:24:18.146Z,40.60
2019-03-09T13:26:50.519Z,40.60
2019-03-09T13:29:22.719Z,40.90
2019-03-09T13:31:55.114Z,40.00
2019-03-09T13:34:27.229Z,40.00
2019-03-09T13:36:59.617Z,39.70
2019-03-09T13:39:32.999Z,40.40
2019-03-09T13:42:05.457Z,39.50
2019-03-09T13:44:37.645Z,38.70
2019-03-09T13:47:09.883Z,38.60
2019-03-09T13:49:42.258Z,39.10
2019-03-09T13:52:14.787Z,38.30
2019-03-09T13:54:47.296Z,38.50
2019-03-09T13:57:19.754Z,38.40
2019-03-09T13:59:52.041Z,38.10
2019-03-09T14:02:24.378Z,38.30
2019-03-09T14:04:56.612Z,38.60
2019-03-09T14:07:29.069Z,38.90
2019-03-09T14:10:01.601Z,38.50
2019-03-09T14:12:34.065Z,38.50
2019-03-09T14:15:07.110Z,38.50
2019-03-09T14:17:39.539Z,38.50
2019-03-09T14:20:13.566Z,39.10
2019-03-09T14:22:46.121Z,38.30
2019-03-09T14:25:18.663Z,38.90
2019-03-09T14:27:50.910Z,39.10
2019-03-09T14:30:23.483Z,38.90
2019-03-09T14:32:55.875Z,38.70
2019-03-09T14:35:28.142Z,38.20
2019-03-09T14:38:00.560Z,37.80
2019-03-09T14:40:32.872Z,39.40
2019-03-09T14:43:05.460Z,38.80
2019-03-09T14:45:37.895Z,38.10
2019-03-09T14:48:10.288Z,38.10
2019-03-09T14:50:42.887Z,37.60
2019-03-09T14:53:15.116Z,37.90
2019-03-09T14:55:47.599Z,38.20
2019-03-09T14:58:19.905Z,38.80
2019-03-09T15:00:53.001Z,38.30
2019-03-09T15:03:25.291Z,38.70
2019-03-09T15:05:57.816Z,39.10
2019-03-09T15:08:30.353Z,38.70
2019-03-09T15:11:02.792Z,38.70
2019-03-09T15:13:35.172Z,38.40
2019-03-09T15:16:08.224Z,38.40
2019-03-09T15:18:40.643Z,39.40
2019-03-09T15:21:13.272Z,41.10
2019-03-09T15:23:46.071Z,39.80
2019-03-09T15:26:18.541Z,41.00
2019-03-09T15:28:51.039Z,40.90
2019-03-09T15:31:23.555Z,40.40
2019-03-09T15:33:56.204Z,39.50
2019-03-09T15:36:28.448Z,39.70
2019-03-09T15:39:01.187Z,39.30
2019-03-09T15:41:33.655Z,40.10
2019-03-09T15:44:06.755Z,39.70
2019-03-09T15:46:39.211Z,39.40
2019-03-09T15:49:11.643Z,40.10
2019-03-09T15:51:43.945Z,39.60
2019-03-09T15:54:16.643Z,39.80
2019-03-09T15:56:49.205Z,40.10
2019-03-09T15:59:21.851Z,40.80
2019-03-09T16:01:54.571Z,40.80
2019-03-09T16:04:27.169Z,40.70
2019-03-09T16:06:59.736Z,41.70
2019-03-09T16:09:32.225Z,42.20
2019-03-09T16:12:05.183Z,41.80
2019-03-09T16:14:38.033Z,42.70
2019-03-09T16:17:10.762Z,42.90
2019-03-09T16:19:43.653Z,43.00
2019-03-09T16:22:16.098Z,43.00
2019-03-09T16:24:48.567Z,43.10
2019-03-09T16:27:21.111Z,43.20
2019-03-09T16:29:53.679Z,43.50
2019-03-09T16:32:26.096Z,43.50
2019-03-09T16:35:00.699Z,43.70
2019-03-09T16:37:32.697Z,43.90
2019-03-09T16:40:05.848Z,44.10
2019-03-09T16:42:38.330Z,44.00
2019-03-09T16:45:11.298Z,44.40
2019-03-09T16:47:43.677Z,45.40
2019-03-09T16:50:16.721Z,45.10
2019-03-09T16:52:49.156Z,45.00
2019-03-09T16:55:21.880Z,46.00
2019-03-09T16:57:54.548Z,46.60
2019-03-09T17:00:28.489Z,46.80
2019-03-09T17:03:01.096Z,46.40
2019-03-09T17:05:33.534Z,46.40
2019-03-09T17:08:06.007Z,47.00
2019-03-09T17:10:38.673Z,47.60
2019-03-09T17:13:30.645Z,47.60
2019-03-09T17:16:03.862Z,47.90
2019-03-09T17:18:38.976Z,48.70
2019-03-09T17:21:11.919Z,49.90
2019-03-09T17:23:46.366Z,52.40
2019-03-09T17:26:19.737Z,56.40
2019-03-09T17:28:53.039Z,59.60
2019-03-09T17:31:26.023Z,62.10
2019-03-09T17:34:03.012Z,65.10
2019-03-09T17:36:36.910Z,68.20
2019-03-09T17:39:12.949Z,73.00
2019-03-09T17:41:46.344Z,75.60
2019-03-09T17:44:20.523Z,77.50
2019-03-09T17:46:54.100Z,78.90
2019-03-09T17:49:27.976Z,80.80
2019-03-09T17:52:01.228Z,81.40
2019-03-09T17:54:35.986Z,82.60
2019-03-09T17:57:31.073Z,82.70
2019-03-09T18:00:05.117Z,82.80
2019-03-09T18:02:38.891Z,82.50
2019-03-09T18:05:12.934Z,82.50
2019-03-09T18:07:48.475Z,83.00
2019-03-09T18:10:41.771Z,83.20
2019-03-09T18:13:15.007Z,82.90
2019-03-09T18:15:48.207Z,82.60
2019-03-09T18:18:21.220Z,83.00
2019-03-09T18:20:55.060Z,83.70
2019-03-09T18:23:28.913Z,83.20
2019-03-09T18:26:02.499Z,83.30
2019-03-09T18:28:35.989Z,83.20
2019-03-09T18:31:10.876Z,83.30
2019-03-09T18:33:44.992Z,83.70
2019-03-09T18:36:18.347Z,83.90
2019-03-09T18:38:51.421Z,83.90
2019-03-09T18:41:25.114Z,82.90
2019-03-09T18:43:58.571Z,84.50
2019-03-09T18:46:33.522Z,85.20
2019-03-09T18:49:06.895Z,85.00
2019-03-09T18:51:40.130Z,85.00
2019-03-09T18:54:13.325Z,85.00
2019-03-09T18:56:46.090Z,85.60
2019-03-09T18:59:19.598Z,85.70
2019-03-09T19:01:53.157Z,85.70
2019-03-09T19:04:26.240Z,86.10
2019-03-09T19:06:59.564Z,85.50
2019-03-09T19:09:32.915Z,85.70
2019-03-09T19:12:05.879Z,86.00
2019-03-09T19:14:41.429Z,86.60
2019-03-09T19:17:14.397Z,87.10
2019-03-09T19:19:47.718Z,87.90
2019-03-09T19:22:21.255Z,88.00
2019-03-09T19:24:54.006Z,88.90
2019-03-09T19:27:27.188Z,89.20
2019-03-09T19:30:00.434Z,89.40
2019-03-09T19:32:33.660Z,90.00
2019-03-09T19:35:07.748Z,89.30
2019-03-09T19:37:52.023Z,89.80
2019-03-09T19:40:28.453Z,89.80
2019-03-09T19:43:01.973Z,89.50
2019-03-09T19:45:35.478Z,89.40
2019-03-09T19:48:08.732Z,90.10
2019-03-09T19:50:42.156Z,90.10
2019-03-09T19:53:15.094Z,90.20
2019-03-09T19:55:48.286Z,90.20
2019-03-09T19:58:21.785Z,90.20
2019-03-09T20:00:55.148Z,90.10
2019-03-09T20:03:28.542Z,90.00
2019-03-09T20:06:01.968Z,90.20
2019-03-09T20:08:35.575Z,90.50
2019-03-09T20:11:09.174Z,90.80
2019-03-09T20:13:42.347Z,90.70
2019-03-09T20:16:15.376Z,90.70
2019-03-09T20:18:48.814Z,90.80
2019-03-09T20:21:21.830Z,90.90
2019-03-09T20:23:55.131Z,90.90
2019-03-09T20:26:28.505Z,90.90
2019-03-09T20:29:02.193Z,90.80
2019-03-09T20:31:35.830Z,90.80
2019-03-09T20:34:09.098Z,90.70
2019-03-09T20:36:42.908Z,90.70
2019-03-09T20:39:15.872Z,90.90
2019-03-09T20:41:48.766Z,90.90
2019-03-09T20:44:21.908Z,90.90
2019-03-09T20:46:55.384Z,90.70
2019-03-09T20:49:28.670Z,90.70
2019-03-09T20:52:01.650Z,90.60
2019-03-09T20:54:34.900Z,90.70
2019-03-09T20:57:08.220Z,90.70
2019-03-09T20:59:41.329Z,91.00
2019-03-09T21:02:14.448Z,90.40
2019-03-09T21:04:47.388Z,90.20
2019-03-09T21:07:20.615Z,90.00
2019-03-09T21:09:53.587Z,90.10
2019-03-09T21:12:26.936Z,90.30
2019-03-09T21:14:59.991Z,90.30
2019-03-09T21:17:33.287Z,90.20
2019-03-09T21:20:06.681Z,90.10
2019-03-09T21:22:39.699Z,90.30
2019-03-09T21:25:12.676Z,90.30
2019-03-09T21:27:45.879Z,90.30
2019-03-09T21:30:19.495Z,90.30
2019-03-09T21:32:52.352Z,90.20
2019-03-09T21:35:25.409Z,90.30
2019-03-09T21:37:58.772Z,90.40
2019-03-09T21:40:31.704Z,90.40
2019-03-09T21:43:17.617Z,90.80
2019-03-09T21:45:50.502Z,90.90
2019-03-09T21:48:23.381Z,90.90
2019-03-09T21:50:56.649Z,91.00
2019-03-09T21:53:29.451Z,91.20
2019-03-09T21:56:02.487Z,90.60
2019-03-09T21:58:35.881Z,90.50
2019-03-09T22:01:09.015Z,91.50
2019-03-09T22:06:19.798Z,90.80
2019-03-09T22:08:52.529Z,90.40
2019-03-09T22:11:24.918Z,90.10
2019-03-09T22:13:57.051Z,90.40
2019-03-09T22:16:29.536Z,90.10
2019-03-09T22:19:01.720Z,90.20
2019-03-09T22:21:33.986Z,90.10
2019-03-09T22:24:06.132Z,90.00
2019-03-09T22:26:38.254Z,90.10
2019-03-09T22:29:10.560Z,90.20
2019-03-09T22:31:42.971Z,90.20
2019-03-09T22:34:15.198Z,90.20
2019-03-09T22:36:47.795Z,90.50
2019-03-09T22:39:20.273Z,90.40
2019-03-09T22:41:52.680Z,90.00
2019-03-09T22:44:24.965Z,89.80
2019-03-09T22:46:57.182Z,89.90
2019-03-09T22:49:29.265Z,90.00
2019-03-09T22:52:01.411Z,90.10
2019-03-09T22:54:33.723Z,90.20
2019-03-09T22:57:06.591Z,90.20
2019-03-09T22:59:38.879Z,90.00
2019-03-09T23:02:11.478Z,89.60
2019-03-09T23:04:43.771Z,89.90
2019-03-09T23:07:15.914Z,90.20
2019-03-09T23:09:47.943Z,90.30
2019-03-09T23:12:20.089Z,90.00
2019-03-09T23:14:52.265Z,90.00
2019-03-09T23:17:24.501Z,89.10
2019-03-09T23:19:56.603Z,89.50
2019-03-09T23:22:28.781Z,90.40
2019-03-09T23:25:00.895Z,90.60
2019-03-09T23:27:33.236Z,90.80
2019-03-09T23:30:07.427Z,90.50
2019-03-09T23:32:39.830Z,90.20
2019-03-09T23:35:12.030Z,90.10
2019-03-09T23:37:44.414Z,90.00
2019-03-09T23:40:17.595Z,90.10
2019-03-09T23:42:49.873Z,90.30
2019-03-09T23:45:22.157Z,90.50
2019-03-09T23:47:54.537Z,90.30
2019-03-09T23:50:26.731Z,90.20
2019-03-09T23:52:59.106Z,90.00
2019-03-09T23:55:31.263Z,90.00
2019-03-09T23:58:03.530Z,89.80
